Time;durP1;ratioP1;P1;durP2;ratioP2;P2;SDS_P1;SDS_P2;PMS_P1;PMS_P2;Temp;Humidity;BMP_temperature;BMP_pressure;BME280_temperature;BME280_humidity;BME280_pressure;Samples;Min_cycle;Max_cycle;Signal;HPM_P1;HPM_P2
2022/06/25 00:01:44;;;;;;;2.92;2.63;;;;;;;;;;5109053;28;20035;-74
2022/06/25 00:07:03;;;;;;;3.55;3.08;;;;;;;;;;5104358;28;20043;-73
2022/06/25 00:09:33;;;;;;;5.28;2.70;;;;;;;;;;5091189;28;20058;-73
2022/06/25 00:14:53;;;;;;;3.53;2.50;;;;;;;;;;5106968;28;20047;-73
2022/06/25 00:17:23;;;;;;;6.97;2.42;;;;;;;;;;5105238;28;20410;-74
2022/06/25 00:19:53;;;;;;;2.85;2.53;;;;;;;;;;5091283;28;20048;-73
2022/06/25 00:22:23;;;;;;;2.78;2.53;;;;;;;;;;5095244;28;20584;-74
2022/06/25 00:24:53;;;;;;;3.00;2.80;;;;;;;;;;5099092;28;20494;-75
2022/06/25 00:27:23;;;;;;;2.20;2.00;;;;;;;;;;5097060;28;20040;-74
2022/06/25 00:29:53;;;;;;;2.75;2.28;;;;;;;;;;5078161;28;20056;-74
2022/06/25 00:32:23;;;;;;;2.58;2.38;;;;;;;;;;5097927;28;20492;-75
2022/06/25 00:34:53;;;;;;;4.55;2.42;;;;;;;;;;5098926;28;20044;-74
2022/06/25 00:37:22;;;;;;;2.88;2.60;;;;;;;;;;5097107;28;20036;-75
2022/06/25 00:39:53;;;;;;;2.70;2.50;;;;;;;;;;5095825;28;20055;-73
2022/06/25 00:42:23;;;;;;;2.95;2.75;;;;;;;;;;5097427;28;20050;-75
2022/06/25 00:44:55;;;;;;;2.65;2.45;;;;;;;;;;5098029;28;20051;-74
2022/06/25 00:47:26;;;;;;;2.60;2.40;;;;;;;;;;5097080;28;20419;-74
2022/06/25 00:49:56;;;;;;;2.55;2.35;;;;;;;;;;5096247;28;20044;-75
2022/06/25 00:52:28;;;;;;;4.10;2.40;;;;;;;;;;5081215;28;20525;-74
2022/06/25 00:55:11;;;;;;;4.72;2.63;;;;;;;;;;5098897;28;20153;-74
2022/06/25 00:57:44;;;;;;;2.75;2.50;;;;;;;;;;5079049;28;20426;-74
2022/06/25 01:00:17;;;;;;;2.60;2.40;;;;;;;;;;5099195;28;20507;-76
2022/06/25 01:02:48;;;;;;;2.30;2.10;;;;;;;;;;5092660;28;20052;-75
2022/06/25 01:05:19;;;;;;;2.63;2.42;;;;;;;;;;5097041;28;20052;-74
2022/06/25 01:07:51;;;;;;;5.95;2.22;;;;;;;;;;5078899;28;20048;-73
2022/06/25 01:10:21;;;;;;;3.20;2.08;;;;;;;;;;5106746;27;20422;-73
2022/06/25 01:12:51;;;;;;;2.47;2.10;;;;;;;;;;5088788;28;20047;-73
2022/06/25 01:15:21;;;;;;;5.07;2.63;;;;;;;;;;5088488;28;20051;-73
2022/06/25 01:17:52;;;;;;;2.30;2.10;;;;;;;;;;5107084;28;20055;-73
2022/06/25 01:20:25;;;;;;;2.22;2.03;;;;;;;;;;5088054;28;20055;-73
2022/06/25 01:22:58;;;;;;;;;;;;;;;;;;5089170;28;20055;-73
2022/06/25 01:25:36;;;;;;;2.00;1.70;;;;;;;;;;5088407;28;20318;-73
2022/06/25 01:28:09;;;;;;;1.80;1.70;;;;;;;;;;5106693;28;20043;-73
2022/06/25 01:30:40;;;;;;;4.15;2.08;;;;;;;;;;5107469;28;20035;-73
2022/06/25 01:33:10;;;;;;;1.70;1.60;;;;;;;;;;5088483;28;20047;-73
2022/06/25 01:35:42;;;;;;;1.98;1.65;;;;;;;;;;5105747;28;20047;-73
2022/06/25 01:38:12;;;;;;;8.02;1.90;;;;;;;;;;5107219;28;20051;-73
2022/06/25 01:40:42;;;;;;;5.22;1.80;;;;;;;;;;5107262;28;20056;-73
2022/06/25 01:43:12;;;;;;;2.00;1.80;;;;;;;;;;5107696;28;20043;-73
2022/06/25 01:45:42;;;;;;;1.25;1.15;;;;;;;;;;5107130;28;20062;-74
2022/06/25 01:48:12;;;;;;;4.88;1.40;;;;;;;;;;5088069;28;20055;-73
2022/06/25 01:50:41;;;;;;;1.60;1.20;;;;;;;;;;5087752;28;20047;-73
2022/06/25 01:53:13;;;;;;;2.70;1.38;;;;;;;;;;5087813;28;20426;-73
2022/06/25 01:55:44;;;;;;;2.35;1.20;;;;;;;;;;5088387;28;20556;-74
2022/06/25 01:58:15;;;;;;;;;;;;;;;;;;5088747;28;20047;-74
2022/06/25 02:00:46;;;;;;;0.77;0.77;;;;;;;;;;5088227;28;19943;-75
2022/06/25 02:03:16;;;;;;;1.33;1.00;;;;;;;;;;5106910;28;20460;-73
2022/06/25 02:05:57;;;;;;;1.27;0.70;;;;;;;;;;5089073;28;20059;-76
2022/06/25 02:08:34;;;;;;;0.60;0.60;;;;;;;;;;5107541;28;20054;-76
2022/06/25 02:11:06;;;;;;;2.08;0.80;;;;;;;;;;5107116;28;20043;-73
2022/06/25 02:13:38;;;;;;;1.50;0.57;;;;;;;;;;5106929;28;20490;-73
2022/06/25 02:16:09;;;;;;;0.60;0.50;;;;;;;;;;5088575;28;20540;-76
2022/06/25 02:18:42;;;;;;;0.50;0.50;;;;;;;;;;5107337;28;20070;-76
2022/06/25 02:21:13;;;;;;;2.08;0.50;;;;;;;;;;5107271;28;20044;-76
2022/06/25 02:23:44;;;;;;;2.03;0.60;;;;;;;;;;5107416;28;20039;-76
2022/06/25 02:26:13;;;;;;;0.75;0.65;;;;;;;;;;5106633;28;20047;-75
2022/06/25 02:28:43;;;;;;;2.60;0.43;;;;;;;;;;5107015;28;20043;-75
2022/06/25 02:31:14;;;;;;;0.63;0.50;;;;;;;;;;5107108;28;20046;-76
2022/06/25 02:33:45;;;;;;;0.40;0.40;;;;;;;;;;5088183;28;20355;-75
2022/06/25 02:36:16;;;;;;;0.40;0.40;;;;;;;;;;5087181;28;20048;-76
2022/06/25 02:38:46;;;;;;;0.57;0.47;;;;;;;;;;5087378;28;20048;-75
2022/06/25 02:41:16;;;;;;;1.08;0.50;;;;;;;;;;5090631;28;20422;-75
2022/06/25 02:43:46;;;;;;;0.93;0.57;;;;;;;;;;5092209;28;20396;-75
2022/06/25 02:46:29;;;;;;;1.52;0.60;;;;;;;;;;5088275;28;20056;-75
2022/06/25 02:49:02;;;;;;;0.70;0.70;;;;;;;;;;5105444;28;20052;-75
2022/06/25 02:51:32;;;;;;;0.68;0.47;;;;;;;;;;5090229;28;20544;-75
2022/06/25 02:54:02;;;;;;;0.60;0.40;;;;;;;;;;5104567;28;20059;-75
2022/06/25 02:59:22;;;;;;;0.63;0.47;;;;;;;;;;5104730;28;20060;-75
2022/06/25 03:01:55;;;;;;;0.32;0.32;;;;;;;;;;5089619;28;20040;-75
2022/06/25 03:04:31;;;;;;;3.25;0.50;;;;;;;;;;5104381;28;20059;-75
2022/06/25 03:07:02;;;;;;;0.30;0.30;;;;;;;;;;5087298;28;20044;-75
2022/06/25 03:09:32;;;;;;;2.25;0.50;;;;;;;;;;5087409;28;20043;-75
2022/06/25 03:12:03;;;;;;;;;;;;;;;;;;5104860;28;20052;-74
2022/06/25 03:14:35;;;;;;;;;;;;;;;;;;5088579;28;20264;-75
2022/06/25 03:17:05;;;;;;;1.90;0.60;;;;;;;;;;5087792;28;19951;-75
2022/06/25 03:19:54;;;;;;;0.60;0.40;;;;;;;;;;5091607;28;20503;-75
2022/06/25 03:22:34;;;;;;;0.30;0.30;;;;;;;;;;5104411;28;20051;-75
2022/06/25 03:25:05;;;;;;;0.98;0.30;;;;;;;;;;5104525;28;20606;-75
2022/06/25 03:27:34;;;;;;;0.38;0.38;;;;;;;;;;5088972;28;20455;-75
2022/06/25 03:30:12;;;;;;;0.90;0.55;;;;;;;;;;5072152;28;20051;-75
2022/06/25 03:32:43;;;;;;;1.25;0.60;;;;;;;;;;5087585;28;20548;-75
2022/06/25 03:35:30;;;;;;;1.63;0.35;;;;;;;;;;5087550;28;20064;-74
2022/06/25 03:38:13;;;;;;;0.95;0.70;;;;;;;;;;5087705;28;20052;-75
2022/06/25 03:40:44;;;;;;;1.10;0.57;;;;;;;;;;5086825;28;20412;-75
2022/06/25 03:43:17;;;;;;;3.03;0.43;;;;;;;;;;5087092;28;21056;-73
2022/06/25 03:45:48;;;;;;;1.13;0.30;;;;;;;;;;5087179;28;20048;-74
2022/06/25 03:48:18;;;;;;;0.43;0.43;;;;;;;;;;5086930;28;20772;-74
2022/06/25 03:51:20;;;;;;;1.60;0.38;;;;;;;;;;5053878;28;20068;-76
2022/06/25 03:53:50;;;;;;;0.65;0.55;;;;;;;;;;5088530;28;20048;-72
2022/06/25 03:56:20;;;;;;;0.50;0.50;;;;;;;;;;5086917;28;20068;-75
2022/06/25 03:58:51;;;;;;;0.65;0.60;;;;;;;;;;5089400;28;20491;-74
2022/06/25 04:01:23;;;;;;;0.75;0.68;;;;;;;;;;5087587;28;20773;-75
2022/06/25 04:03:53;;;;;;;0.50;0.50;;;;;;;;;;5086744;28;20048;-74
2022/06/25 04:06:24;;;;;;;1.60;0.82;;;;;;;;;;5086159;28;20511;-74
2022/06/25 04:09:01;;;;;;;2.50;0.60;;;;;;;;;;5087049;28;20392;-74
2022/06/25 04:11:32;;;;;;;;;;;;;;;;;;5103806;28;20052;-74
2022/06/25 04:14:03;;;;;;;4.85;0.90;;;;;;;;;;5086597;28;19947;-73
2022/06/25 04:16:34;;;;;;;0.80;0.50;;;;;;;;;;5103096;28;20048;-74
2022/06/25 04:19:15;;;;;;;0.60;0.50;;;;;;;;;;5085729;28;20051;-74
2022/06/25 04:21:49;;;;;;;0.52;0.35;;;;;;;;;;5085871;28;20044;-75
2022/06/25 04:24:19;;;;;;;1.60;0.50;;;;;;;;;;5086091;28;20048;-74
2022/06/25 04:26:49;;;;;;;4.90;0.85;;;;;;;;;;5088323;28;20044;-74
2022/06/25 04:29:19;;;;;;;1.40;0.55;;;;;;;;;;5085377;28;20040;-75
2022/06/25 04:31:59;;;;;;;1.40;0.60;;;;;;;;;;5086219;28;20067;-74
2022/06/25 04:34:48;;;;;;;0.52;0.52;;;;;;;;;;5102902;28;20056;-75
2022/06/25 04:37:19;;;;;;;2.95;0.60;;;;;;;;;;5086431;28;20055;-74
2022/06/25 04:39:49;;;;;;;1.65;0.90;;;;;;;;;;5085724;28;20514;-75
2022/06/25 04:42:19;;;;;;;2.40;0.52;;;;;;;;;;5085718;28;20693;-74
2022/06/25 04:44:50;;;;;;;0.85;0.85;;;;;;;;;;5085737;28;20052;-75
2022/06/25 04:47:21;;;;;;;3.90;1.30;;;;;;;;;;5086487;28;20394;-74
2022/06/25 04:50:01;;;;;;;3.00;0.90;;;;;;;;;;5085962;28;20043;-74
2022/06/25 04:52:32;;;;;;;5.00;0.90;;;;;;;;;;5085758;28;20531;-74
2022/06/25 04:55:03;;;;;;;4.50;1.00;;;;;;;;;;5085077;28;20048;-74
2022/06/25 04:57:33;;;;;;;2.33;0.80;;;;;;;;;;5085374;28;20628;-74
2022/06/25 05:00:22;;;;;;;3.10;0.90;;;;;;;;;;5088308;28;20064;-73
2022/06/25 05:02:52;;;;;;;11.05;1.30;;;;;;;;;;5085171;28;20070;-74
2022/06/25 05:05:23;;;;;;;3.33;1.13;;;;;;;;;;5085141;28;20588;-75
2022/06/25 05:07:53;;;;;;;12.43;1.83;;;;;;;;;;5085697;28;20055;-74
2022/06/25 05:10:23;;;;;;;8.68;1.50;;;;;;;;;;5085656;28;20051;-74
2022/06/25 05:13:12;;;;;;;7.75;1.58;;;;;;;;;;5102420;28;20059;-75
2022/06/25 05:15:45;;;;;;;;;;;;;;;;;;5085852;28;20044;-73
2022/06/25 05:18:16;;;;;;;4.28;0.90;;;;;;;;;;5084353;28;19931;-74
2022/06/25 05:20:47;;;;;;;3.07;0.97;;;;;;;;;;5102060;28;20831;-74
2022/06/25 05:23:19;;;;;;;7.80;1.48;;;;;;;;;;5085872;28;20294;-74
2022/06/25 05:25:51;;;;;;;8.73;1.50;;;;;;;;;;5101785;28;20063;-74
2022/06/25 05:28:22;;;;;;;14.10;2.03;;;;;;;;;;5085022;28;20068;-74
2022/06/25 05:30:52;;;;;;;4.90;1.33;;;;;;;;;;5085013;28;20046;-74
2022/06/25 05:33:22;;;;;;;6.63;1.23;;;;;;;;;;5085266;28;20052;-74
2022/06/25 05:35:52;;;;;;;5.60;0.80;;;;;;;;;;5084843;28;20440;-74
2022/06/25 05:38:22;;;;;;;4.22;1.05;;;;;;;;;;5087311;28;20407;-73
2022/06/25 05:40:51;;;;;;;9.02;1.25;;;;;;;;;;5085159;28;20052;-74
2022/06/25 05:43:22;;;;;;;10.13;1.25;;;;;;;;;;5084346;28;20059;-78
2022/06/25 05:45:52;;;;;;;3.78;1.08;;;;;;;;;;5087274;28;20040;-74
2022/06/25 05:48:22;;;;;;;4.93;1.23;;;;;;;;;;5106014;28;20047;-74
2022/06/25 05:50:52;;;;;;;3.47;0.90;;;;;;;;;;5071965;28;20066;-75
2022/06/25 05:53:22;;;;;;;5.68;1.30;;;;;;;;;;5089251;28;20596;-74
2022/06/25 05:55:52;;;;;;;4.07;1.08;;;;;;;;;;5107124;28;20043;-74
2022/06/25 05:58:22;;;;;;;4.22;1.20;;;;;;;;;;5107981;28;20039;-75
2022/06/25 06:00:52;;;;;;;2.17;1.05;;;;;;;;;;5106760;28;20044;-74
2022/06/25 06:03:22;;;;;;;7.07;1.20;;;;;;;;;;5106935;28;20051;-74
2022/06/25 06:05:51;;;;;;;4.57;1.20;;;;;;;;;;5107253;28;20395;-74
2022/06/25 06:08:21;;;;;;;5.13;1.52;;;;;;;;;;5087648;28;20521;-74
2022/06/25 06:10:51;;;;;;;6.00;1.08;;;;;;;;;;5106204;28;20490;-74
2022/06/25 06:13:21;;;;;;;3.80;1.10;;;;;;;;;;5107067;28;20501;-74
2022/06/25 06:15:51;;;;;;;7.15;1.08;;;;;;;;;;5111320;28;20466;-74
2022/06/25 06:18:20;;;;;;;4.65;1.10;;;;;;;;;;5111258;28;20047;-74
2022/06/25 06:20:50;;;;;;;4.72;1.27;;;;;;;;;;5092381;28;20059;-74
2022/06/25 06:23:20;;;;;;;8.43;1.23;;;;;;;;;;5111723;28;20054;-74
2022/06/25 06:25:50;;;;;;;7.80;1.33;;;;;;;;;;5110789;28;20039;-74
2022/06/25 06:28:20;;;;;;;2.92;1.05;;;;;;;;;;5110995;28;20479;-74
2022/06/25 06:30:49;;;;;;;9.18;1.27;;;;;;;;;;5110995;28;20051;-75
2022/06/25 06:33:19;;;;;;;5.35;1.35;;;;;;;;;;5110820;28;20047;-75
2022/06/25 06:35:49;;;;;;;6.68;1.30;;;;;;;;;;5110786;28;20089;-75
2022/06/25 06:38:19;;;;;;;2.47;0.90;;;;;;;;;;5110366;28;20039;-75
2022/06/25 06:40:49;;;;;;;8.45;1.30;;;;;;;;;;5110497;28;20050;-75
2022/06/25 06:43:19;;;;;;;9.77;1.85;;;;;;;;;;5110674;28;20047;-75
2022/06/25 06:45:50;;;;;;;6.65;1.02;;;;;;;;;;5109242;28;20490;-74
2022/06/25 06:48:20;;;;;;;3.70;0.93;;;;;;;;;;5110894;28;20060;-75
2022/06/25 06:50:49;;;;;;;4.57;0.75;;;;;;;;;;5109848;28;20090;-75
2022/06/25 06:53:21;;;;;;;3.95;0.95;;;;;;;;;;5110311;28;20051;-75
2022/06/25 06:55:51;;;;;;;10.77;1.30;;;;;;;;;;5110661;28;20052;-75
2022/06/25 06:58:21;;;;;;;9.52;1.13;;;;;;;;;;5110091;28;20048;-75
2022/06/25 07:00:51;;;;;;;6.20;1.08;;;;;;;;;;5110502;28;20067;-75
2022/06/25 07:03:21;;;;;;;7.85;1.30;;;;;;;;;;5111265;28;20055;-75
2022/06/25 07:05:57;;;;;;;5.53;1.05;;;;;;;;;;5110361;28;20047;-75
2022/06/25 07:08:26;;;;;;;4.22;0.93;;;;;;;;;;5110402;28;20039;-75
2022/06/25 07:10:56;;;;;;;3.90;0.80;;;;;;;;;;5110285;28;20044;-76
2022/06/25 07:13:26;;;;;;;6.47;0.80;;;;;;;;;;5110160;28;20070;-75
2022/06/25 07:15:57;;;;;;;7.13;1.20;;;;;;;;;;5109940;28;20411;-73
2022/06/25 07:18:27;;;;;;;2.30;0.80;;;;;;;;;;5109618;28;20040;-75
2022/06/25 07:20:57;;;;;;;8.55;1.00;;;;;;;;;;5109947;28;20047;-75
2022/06/25 07:23:27;;;;;;;8.43;0.93;;;;;;;;;;5109390;28;20048;-75
2022/06/25 07:25:57;;;;;;;5.43;1.08;;;;;;;;;;5107628;28;20052;-75
2022/06/25 07:28:33;;;;;;;4.80;1.00;;;;;;;;;;5109148;28;20047;-75
2022/06/25 07:31:03;;;;;;;4.03;1.05;;;;;;;;;;5109601;28;20052;-75
2022/06/25 07:33:34;;;;;;;7.60;2.00;;;;;;;;;;5110108;28;20490;-76
2022/06/25 07:36:04;;;;;;;4.70;1.02;;;;;;;;;;5109584;28;20506;-75
2022/06/25 07:38:34;;;;;;;6.90;1.02;;;;;;;;;;5091716;28;20512;-75
2022/06/25 07:41:05;;;;;;;4.57;0.95;;;;;;;;;;5109323;28;20055;-75
2022/06/25 07:43:35;;;;;;;4.32;1.30;;;;;;;;;;5109553;28;20040;-75
2022/06/25 07:46:05;;;;;;;2.25;0.70;;;;;;;;;;5109188;28;20059;-75
2022/06/25 07:48:36;;;;;;;3.45;0.98;;;;;;;;;;5109546;28;20052;-74
2022/06/25 07:53:54;;;;;;;3.63;0.85;;;;;;;;;;5109489;28;20044;-75
2022/06/25 07:56:24;;;;;;;5.13;1.05;;;;;;;;;;5109610;28;20067;-75
2022/06/25 07:58:54;;;;;;;3.30;0.73;;;;;;;;;;5109273;28;20047;-75
2022/06/25 08:01:23;;;;;;;4.15;1.27;;;;;;;;;;5109295;28;20054;-75
2022/06/25 08:03:53;;;;;;;5.13;1.10;;;;;;;;;;5108917;28;20422;-75
2022/06/25 08:06:23;;;;;;;7.20;0.95;;;;;;;;;;5108785;28;20067;-74
2022/06/25 08:08:53;;;;;;;4.50;0.80;;;;;;;;;;5108776;28;20054;-74
2022/06/25 08:11:23;;;;;;;2.75;0.80;;;;;;;;;;5109184;28;20035;-75
2022/06/25 08:13:53;;;;;;;5.60;1.38;;;;;;;;;;5109401;28;20047;-75
2022/06/25 08:16:25;;;;;;;5.95;1.00;;;;;;;;;;5108552;28;20055;-75
2022/06/25 08:18:55;;;;;;;5.07;1.00;;;;;;;;;;5109011;28;20047;-75
2022/06/25 08:21:25;;;;;;;5.93;1.08;;;;;;;;;;5108224;28;20051;-75
2022/06/25 08:23:55;;;;;;;8.40;1.20;;;;;;;;;;5090624;28;20515;-75
2022/06/25 08:26:25;;;;;;;3.60;1.17;;;;;;;;;;5108599;28;20040;-75
2022/06/25 08:28:55;;;;;;;4.80;1.02;;;;;;;;;;5107904;28;20059;-74
2022/06/25 08:31:25;;;;;;;2.70;1.10;;;;;;;;;;5108594;28;20047;-75
2022/06/25 08:33:55;;;;;;;4.03;0.93;;;;;;;;;;5108479;28;20383;-75
2022/06/25 08:36:24;;;;;;;5.22;0.90;;;;;;;;;;5108534;28;20067;-75
2022/06/25 08:38:55;;;;;;;0.93;0.73;;;;;;;;;;5088449;28;20043;-75
2022/06/25 08:41:26;;;;;;;1.88;0.80;;;;;;;;;;5108208;28;20055;-75
2022/06/25 08:43:57;;;;;;;2.22;1.00;;;;;;;;;;5108152;28;20039;-75
2022/06/25 08:46:27;;;;;;;2.10;0.80;;;;;;;;;;5088818;28;20043;-75
2022/06/25 08:48:57;;;;;;;3.75;1.10;;;;;;;;;;5107647;28;20817;-75
2022/06/25 08:51:30;;;;;;;2.88;0.68;;;;;;;;;;5107944;28;20047;-75
2022/06/25 08:54:02;;;;;;;2.70;0.90;;;;;;;;;;5108319;28;20402;-75
2022/06/25 08:56:36;;;;;;;2.35;0.70;;;;;;;;;;5108043;28;20050;-74
2022/06/25 08:59:08;;;;;;;3.20;0.77;;;;;;;;;;5107808;28;20047;-75
2022/06/25 09:01:38;;;;;;;5.82;1.10;;;;;;;;;;5108402;28;20043;-74
2022/06/25 09:04:08;;;;;;;3.63;1.00;;;;;;;;;;5107741;28;20422;-75
2022/06/25 09:06:38;;;;;;;1.73;0.80;;;;;;;;;;5107719;28;20058;-75
2022/06/25 09:09:11;;;;;;;1.33;0.80;;;;;;;;;;5108061;28;20047;-75
2022/06/25 09:11:58;;;;;;;2.90;0.70;;;;;;;;;;5107641;28;20043;-75
2022/06/25 09:14:30;;;;;;;7.00;0.80;;;;;;;;;;5107922;28;20070;-75
2022/06/25 09:17:06;;;;;;;2.70;0.77;;;;;;;;;;5107062;28;20058;-75
2022/06/25 09:19:53;;;;;;;2.97;1.30;;;;;;;;;;5107981;28;20055;-75
2022/06/25 09:22:26;;;;;;;3.17;0.90;;;;;;;;;;5107965;28;20503;-75
2022/06/25 09:24:58;;;;;;;3.40;1.30;;;;;;;;;;5090084;28;20046;-75
2022/06/25 09:27:35;;;;;;;2.50;1.30;;;;;;;;;;5107600;28;20043;-75
2022/06/25 09:30:11;;;;;;;2.53;1.20;;;;;;;;;;5108305;28;20050;-74
2022/06/25 09:32:54;;;;;;;5.32;1.30;;;;;;;;;;5107542;28;20059;-75
2022/06/25 09:35:43;;;;;;;2.00;0.82;;;;;;;;;;5107776;28;20039;-75
2022/06/25 09:38:20;;;;;;;5.22;1.05;;;;;;;;;;5088205;28;20047;-75
2022/06/25 09:40:56;;;;;;;3.55;1.05;;;;;;;;;;5107130;28;20043;-75
2022/06/25 09:43:28;;;;;;;3.35;1.00;;;;;;;;;;5106987;28;20401;-75
2022/06/25 09:46:04;;;;;;;3.63;1.00;;;;;;;;;;5089380;28;20051;-75
2022/06/25 09:48:36;;;;;;;4.50;1.38;;;;;;;;;;5107175;28;20039;-75
2022/06/25 09:51:20;;;;;;;4.00;1.30;;;;;;;;;;5107307;28;20059;-75
2022/06/25 09:53:55;;;;;;;4.60;1.13;;;;;;;;;;5106710;28;20044;-74
2022/06/25 09:56:31;;;;;;;6.18;1.33;;;;;;;;;;5106353;28;20043;-75
2022/06/25 09:59:01;;;;;;;6.50;1.23;;;;;;;;;;5104735;28;20059;-75
2022/06/25 10:01:33;;;;;;;5.32;1.10;;;;;;;;;;5106392;28;20055;-75
2022/06/25 10:04:04;;;;;;;2.08;1.40;;;;;;;;;;5107328;28;20047;-75
2022/06/25 10:06:38;;;;;;;5.13;1.02;;;;;;;;;;5088916;28;20059;-75
2022/06/25 10:09:10;;;;;;;5.97;0.98;;;;;;;;;;5090184;28;20058;-75
2022/06/25 10:11:40;;;;;;;5.53;1.00;;;;;;;;;;5107176;28;20043;-75
2022/06/25 10:14:12;;;;;;;9.70;1.30;;;;;;;;;;5107292;28;20040;-75
2022/06/25 10:16:43;;;;;;;11.48;1.20;;;;;;;;;;5088850;28;20047;-75
2022/06/25 10:19:14;;;;;;;4.65;1.35;;;;;;;;;;5107000;28;20044;-75
2022/06/25 10:21:44;;;;;;;;;;;;;;;;;;5089611;28;20054;-75
2022/06/25 10:24:15;;;;;;;7.13;0.98;;;;;;;;;;5106978;28;19923;-75
2022/06/25 10:26:45;;;;;;;6.40;1.45;;;;;;;;;;5106945;28;20196;-75
2022/06/25 10:29:25;;;;;;;5.13;1.42;;;;;;;;;;5106887;28;20044;-75
2022/06/25 10:32:17;;;;;;;4.32;1.00;;;;;;;;;;5107186;28;20051;-75
2022/06/25 10:34:58;;;;;;;10.48;1.77;;;;;;;;;;5106766;28;20044;-75
2022/06/25 10:38:00;;;;;;;12.75;2.00;;;;;;;;;;5104506;28;20055;-75
2022/06/25 10:40:51;;;;;;;13.30;1.50;;;;;;;;;;5103055;28;20047;-75
2022/06/25 10:43:45;;;;;;;15.85;5.43;;;;;;;;;;5104628;28;20110;-75
2022/06/25 10:46:31;;;;;;;9.10;3.88;;;;;;;;;;5104283;28;20054;-75
2022/06/25 10:49:10;;;;;;;9.77;2.83;;;;;;;;;;5104746;28;20047;-75
2022/06/25 10:51:47;;;;;;;16.73;2.28;;;;;;;;;;5105114;28;20434;-75
2022/06/25 10:54:26;;;;;;;19.35;1.80;;;;;;;;;;5106527;28;20058;-75
2022/06/25 10:56:58;;;;;;;10.48;2.00;;;;;;;;;;5107297;28;20044;-75
2022/06/25 10:59:34;;;;;;;11.73;2.10;;;;;;;;;;5088073;28;20418;-75
2022/06/25 11:02:08;;;;;;;15.45;2.20;;;;;;;;;;5109611;28;20517;-75
2022/06/25 11:04:38;;;;;;;10.75;1.40;;;;;;;;;;5109973;28;20047;-75
2022/06/25 11:07:09;;;;;;;14.02;2.50;;;;;;;;;;5110368;28;20494;-76
2022/06/25 11:09:50;;;;;;;20.48;2.47;;;;;;;;;;5110073;28;20071;-75
2022/06/25 11:12:21;;;;;;;17.95;1.50;;;;;;;;;;5110166;28;20043;-75
2022/06/25 11:15:10;;;;;;;12.43;1.83;;;;;;;;;;5110005;28;20040;-75
2022/06/25 11:17:40;;;;;;;12.02;2.15;;;;;;;;;;5109574;28;20834;-75
2022/06/25 11:20:12;;;;;;;13.48;2.05;;;;;;;;;;5110575;28;20039;-76
2022/06/25 11:22:51;;;;;;;8.82;1.30;;;;;;;;;;5108632;28;20751;-75
2022/06/25 11:30:58;;;;;;;10.30;3.95;;;;;;;;;;5110456;28;20050;-75
2022/06/25 11:33:28;;;;;;;15.73;3.30;;;;;;;;;;5109600;28;20047;-75
2022/06/25 11:36:08;;;;;;;15.15;2.70;;;;;;;;;;5109892;28;20070;-75
2022/06/25 11:38:40;;;;;;;13.93;2.10;;;;;;;;;;5109522;28;20506;-75
2022/06/25 11:41:21;;;;;;;10.77;1.98;;;;;;;;;;5091354;28;20471;-75
2022/06/25 11:43:52;;;;;;;16.00;2.47;;;;;;;;;;5109638;28;20159;-75
2022/06/25 11:46:22;;;;;;;9.77;1.83;;;;;;;;;;5109240;28;20044;-75
2022/06/25 11:48:53;;;;;;;13.57;1.98;;;;;;;;;;5091420;28;20395;-76
2022/06/25 11:51:24;;;;;;;13.25;2.30;;;;;;;;;;5109187;28;20143;-75
2022/06/25 11:53:55;;;;;;;11.52;2.35;;;;;;;;;;5109263;28;20043;-75
2022/06/25 11:56:27;;;;;;;7.25;1.88;;;;;;;;;;5109398;28;20050;-75
2022/06/25 11:58:57;;;;;;;8.95;2.00;;;;;;;;;;5109222;28;20071;-74
2022/06/25 12:01:29;;;;;;;12.63;2.30;;;;;;;;;;5108736;28;20048;-75
2022/06/25 12:04:03;;;;;;;12.60;1.95;;;;;;;;;;5109232;28;20043;-75
2022/06/25 12:06:34;;;;;;;14.10;2.20;;;;;;;;;;5109026;28;20048;-75
2022/06/25 12:09:07;;;;;;;18.00;2.75;;;;;;;;;;5109307;28;20491;-79
2022/06/25 12:11:37;;;;;;;6.35;1.30;;;;;;;;;;5108557;28;20051;-75
2022/06/25 12:14:07;;;;;;;7.82;1.75;;;;;;;;;;5109595;28;20044;-75
2022/06/25 12:16:44;;;;;;;14.15;2.20;;;;;;;;;;5109690;28;20040;-77
2022/06/25 12:19:15;;;;;;;11.48;2.15;;;;;;;;;;5109549;28;20525;-76
2022/06/25 12:21:46;;;;;;;9.83;1.93;;;;;;;;;;5091023;28;20039;-74
2022/06/25 12:24:19;;;;;;;12.65;2.10;;;;;;;;;;5109030;28;21119;-74
2022/06/25 12:26:53;;;;;;;6.35;1.42;;;;;;;;;;5108226;28;20054;-75
2022/06/25 12:29:25;;;;;;;7.68;2.08;;;;;;;;;;5091071;28;20047;-75
2022/06/25 12:31:58;;;;;;;8.50;1.90;;;;;;;;;;5108518;28;20054;-74
2022/06/25 12:34:28;;;;;;;4.57;1.60;;;;;;;;;;5109298;28;20078;-74
2022/06/25 12:36:59;;;;;;;5.13;1.55;;;;;;;;;;5108208;28;20065;-76
2022/06/25 12:39:34;;;;;;;4.20;1.42;;;;;;;;;;5108777;28;20052;-74
2022/06/25 12:42:07;;;;;;;6.18;1.60;;;;;;;;;;5108841;28;20051;-74
2022/06/25 12:44:40;;;;;;;11.05;1.50;;;;;;;;;;5108493;28;20059;-74
2022/06/25 12:47:15;;;;;;;9.90;1.63;;;;;;;;;;5108274;28;20059;-75
2022/06/25 12:49:45;;;;;;;10.07;1.75;;;;;;;;;;5108489;28;20059;-74
2022/06/25 12:52:23;;;;;;;12.63;1.50;;;;;;;;;;5108604;28;20050;-74
2022/06/25 12:54:56;;;;;;;10.93;1.70;;;;;;;;;;5108306;28;20044;-75
2022/06/25 12:57:33;;;;;;;8.27;1.80;;;;;;;;;;5108116;28;20043;-75
2022/06/25 13:00:15;;;;;;;9.52;1.73;;;;;;;;;;5108174;28;20036;-74
2022/06/25 13:02:45;;;;;;;9.05;1.80;;;;;;;;;;5108352;28;20048;-76
2022/06/25 13:05:18;;;;;;;9.23;1.55;;;;;;;;;;5108065;28;20052;-75
2022/06/25 13:07:48;;;;;;;5.22;1.48;;;;;;;;;;5107901;28;20050;-74
2022/06/25 13:10:19;;;;;;;4.63;1.60;;;;;;;;;;5108241;28;20817;-74
2022/06/25 13:12:53;;;;;;;8.85;1.58;;;;;;;;;;5107940;28;20048;-74
2022/06/25 13:15:24;;;;;;;8.90;1.50;;;;;;;;;;5088762;28;20059;-74
2022/06/25 13:17:54;;;;;;;7.43;1.70;;;;;;;;;;5107618;28;20054;-74
2022/06/25 13:20:25;;;;;;;9.40;1.80;;;;;;;;;;5107329;28;20055;-74
2022/06/25 13:22:56;;;;;;;7.50;1.80;;;;;;;;;;5107332;28;20055;-74
2022/06/25 13:25:26;;;;;;;8.25;2.03;;;;;;;;;;5106504;28;20043;-74
2022/06/25 13:27:56;;;;;;;8.20;2.00;;;;;;;;;;5107685;28;20047;-75
2022/06/25 13:30:26;;;;;;;6.18;1.60;;;;;;;;;;5107461;28;20487;-73
2022/06/25 13:33:16;;;;;;;7.50;1.83;;;;;;;;;;5107148;28;20046;-73
2022/06/25 13:35:46;;;;;;;5.53;1.80;;;;;;;;;;5107598;28;20040;-75
2022/06/25 13:38:16;;;;;;;11.18;1.70;;;;;;;;;;5088951;28;20039;-74
2022/06/25 13:40:46;;;;;;;5.47;1.60;;;;;;;;;;5107620;28;20044;-74
2022/06/25 13:43:15;;;;;;;11.88;1.77;;;;;;;;;;5107101;28;20051;-73
2022/06/25 13:45:46;;;;;;;9.85;2.05;;;;;;;;;;5106972;28;20058;-74
2022/06/25 13:48:16;;;;;;;15.07;2.20;;;;;;;;;;5085152;28;20071;-74
2022/06/25 13:50:47;;;;;;;12.52;2.70;;;;;;;;;;5086984;28;20048;-74
2022/06/25 13:53:20;;;;;;;9.15;1.95;;;;;;;;;;5087029;28;20043;-74
2022/06/25 13:55:50;;;;;;;8.63;1.83;;;;;;;;;;5086370;28;20578;-76
2022/06/25 13:58:20;;;;;;;7.35;1.70;;;;;;;;;;5086580;28;20499;-74
2022/06/25 14:00:50;;;;;;;8.68;1.80;;;;;;;;;;5086872;28;20410;-72
2022/06/25 14:03:20;;;;;;;8.25;1.90;;;;;;;;;;5087604;28;20491;-74
2022/06/25 14:05:50;;;;;;;6.60;2.15;;;;;;;;;;5086253;28;20052;-76
2022/06/25 14:08:20;;;;;;;6.90;1.50;;;;;;;;;;5086452;28;20066;-76
2022/06/25 14:10:51;;;;;;;7.43;1.88;;;;;;;;;;5084388;28;20058;-73
2022/06/25 14:13:21;;;;;;;7.25;1.77;;;;;;;;;;5086782;28;20052;-74
2022/06/25 14:15:51;;;;;;;10.05;1.85;;;;;;;;;;5086432;28;20052;-74
2022/06/25 14:18:22;;;;;;;7.80;1.88;;;;;;;;;;5085678;28;20056;-71
2022/06/25 14:20:52;;;;;;;13.93;2.60;;;;;;;;;;5086646;28;20506;-74
2022/06/25 14:23:22;;;;;;;9.35;1.60;;;;;;;;;;5086250;28;20055;-71
2022/06/25 14:25:52;;;;;;;10.60;2.22;;;;;;;;;;5086204;28;20052;-72
2022/06/25 14:28:23;;;;;;;5.20;1.92;;;;;;;;;;5086414;28;20048;-71
2022/06/25 14:30:54;;;;;;;8.00;2.08;;;;;;;;;;5087077;28;20040;-72
2022/06/25 14:33:24;;;;;;;8.73;2.20;;;;;;;;;;5086889;28;20067;-72
2022/06/25 14:55:01;;;;;;;6.07;1.63;;;;;;;;;;5167144;27;20217;-72
2022/06/25 14:57:33;;;;;;;10.40;2.00;;;;;;;;;;5146363;27;20053;-75
2022/06/25 15:12:50;;;;;;;7.90;1.55;;;;;;;;;;5102896;27;20428;-73
2022/06/25 16:51:59;;;;;;;8.63;1.60;;;;;;;;;;5063343;28;20424;-72
2022/06/25 16:54:30;;;;;;;7.30;2.33;;;;;;;;;;5062820;28;20048;-74
2022/06/25 16:57:00;;;;;;;9.70;1.92;;;;;;;;;;5062869;28;20048;-73
2022/06/25 16:59:31;;;;;;;9.02;2.25;;;;;;;;;;5063760;28;20055;-72
2022/06/25 17:02:01;;;;;;;8.27;1.65;;;;;;;;;;5062951;28;20045;-72
2022/06/25 17:04:31;;;;;;;9.23;1.92;;;;;;;;;;5063291;28;20049;-74
2022/06/25 17:07:01;;;;;;;6.00;1.48;;;;;;;;;;5044083;28;20049;-74
2022/06/25 17:09:34;;;;;;;7.30;1.60;;;;;;;;;;5043168;28;20412;-73
2022/06/25 17:12:07;;;;;;;4.07;1.20;;;;;;;;;;5027092;28;20063;-73
2022/06/25 17:14:37;;;;;;;8.13;2.03;;;;;;;;;;5042758;28;20057;-73
2022/06/25 17:17:07;;;;;;;11.30;1.70;;;;;;;;;;5042325;28;20278;-73
2022/06/25 17:19:38;;;;;;;8.13;1.63;;;;;;;;;;5043506;28;20233;-74
2022/06/25 17:22:08;;;;;;;8.30;1.80;;;;;;;;;;5042780;28;20064;-74
2022/06/25 17:24:38;;;;;;;5.40;1.42;;;;;;;;;;5041613;28;20045;-73
2022/06/25 17:27:08;;;;;;;5.57;1.55;;;;;;;;;;5042255;28;20046;-73
2022/06/25 17:29:38;;;;;;;10.35;1.75;;;;;;;;;;5042092;28;20045;-74
2022/06/25 17:32:11;;;;;;;7.50;1.95;;;;;;;;;;5041905;28;20056;-73
2022/06/25 17:34:41;;;;;;;6.00;1.17;;;;;;;;;;5041082;28;20630;-73
2022/06/25 17:37:10;;;;;;;5.13;1.35;;;;;;;;;;5042396;28;20049;-74
2022/06/25 17:39:40;;;;;;;6.03;1.58;;;;;;;;;;5042204;28;20048;-73